This is the latest recevied weather packets stored in our database for station/object IU5JAE-13. If no packets are shown the sender has not sent any weather packets the latest 10 day(s).
| Time | Temp. | Humidity | Pressure | Rain* | Wind** | Luminosity | Snow |
|---|---|---|---|---|---|---|---|
| 1788442529 | 31.11° C | 54% | 1020.3 hPa | 0 mm | - | 402 W/m² | - |
| 1788441926 | 30° C | 56% | 1020.2 hPa | 0 mm | - | 422 W/m² | - |
| 1788441324 | 30° C | 55% | 1020.3 hPa | 0 mm | - | 436 W/m² | - |
| 1788440722 | 30.56° C | 55% | 1020.3 hPa | 0 mm | - | 465 W/m² | - |
| 1788440119 | 30° C | 53% | 1020.4 hPa | 0 mm | - | 485 W/m² | - |
| 1788439517 | 30° C | 53% | 1020.5 hPa | 0 mm | - | 506 W/m² | - |
| 1788438935 | 30° C | 53% | 1020.3 hPa | 0 mm | - | 525 W/m² | - |
| 1788438332 | 30° C | 54% | 1020.5 hPa | 0 mm | - | 544 W/m² | - |
| 1788437730 | 30° C | 55% | 1020.5 hPa | 0 mm | - | 558 W/m² | - |
| 1788437127 | 29.44° C | 56% | 1020.8 hPa | 0 mm | - | 571 W/m² | - |
| 1788436525 | 29.44° C | 55% | 1020.7 hPa | 0 mm | - | 579 W/m² | - |
| 1788435922 | 29.44° C | 56% | 1020.5 hPa | 0 mm | - | 584 W/m² | - |
| 1788435320 | 29.44° C | 56% | 1020.6 hPa | 0 mm | - | 587 W/m² | - |
| 1788434718 | 28.89° C | 57% | 1020.7 hPa | 0 mm | - | 589 W/m² | - |
| 1788434115 | 28.33° C | 60% | 1020.9 hPa | 0 mm | - | 590 W/m² | - |
| 1788433533 | 27.78° C | 62% | 1020.9 hPa | 0 mm | - | 591 W/m² | - |
| 1788432931 | 27.78° C | 61% | 1021 hPa | 0 mm | - | 586 W/m² | - |
| 1788432328 | 27.78° C | 61% | 1021.2 hPa | 0 mm | - | 587 W/m² | - |
| 1788431726 | 28.33° C | 61% | 1021.2 hPa | 0 mm | - | 580 W/m² | - |
| 1788431123 | 27.78° C | 61% | 1021.2 hPa | 0 mm | - | 572 W/m² | - |
| 1788430521 | 28.33° C | 60% | 1021.3 hPa | 0 mm | - | 562 W/m² | - |
| 1788429918 | 28.33° C | 59% | 1021.5 hPa | 0 mm | - | 552 W/m² | - |
| 1788429316 | 28.33° C | 58% | 1021.5 hPa | 0 mm | - | 543 W/m² | - |
| 1788428734 | 27.22° C | 65% | 1021.5 hPa | 0 mm | - | 539 W/m² | - |
| 1788428131 | 27.22° C | 64% | 1021.4 hPa | 0 mm | - | 535 W/m² | - |
* Rain latest hour (hover to see other rain measurements)
** Current wind speed in m/s (hover to see current wind gust speed)